Terminal Aerodrome Forecast
Issued by NWS

Home | Current Version | Previous Version | Text Only | Print | Product List | Glossary On
Versions: 1 2 3 4 5 6 7 8 9 10 11 12 13 14 15
000
FTUS46 KSGX 221700
TAFCRQ
TAF
KCRQ 221720Z 2218/2318 VRB05KT P6SM SCT250
     FM222000 25007KT P6SM SCT250
     FM230100 VRB03KT P6SM FEW013 SCT250
     FM230500 VRB03KT P6SM BKN011
     FM231500 VRB03KT P6SM FEW014 SCT250=

USA.gov is the U.S. government's official web portal to all federal, state and local government web resources and services.